Knollwood, Illinois
Current Conditions -  °F | °C
As of 1:55 PM on Monday 26 Jan 2015 (Local Time) from KUGN Reporting Station
Light Snow Light Snow  
Wind Chill: 27°   Ceiling: 3500
Heat Index: 27°   Visibility: 3mi
Dew Point: 17°   Wind: 0mph
Humidity: 66%   Direction: NA
Pressure: 29.86"   Gusts: NA
Location:  42.2868°N, 87.8639°W
Report Text: KUGN 261955Z 00000KT 3SM -SN BKN035 BKN043 OVC055 M03/M08 A2986 RMK AO2 SNB55 SLP126 P0000 T10281083
Loading
Personal Weather Stations






























Interactive Weather Map New forecast layout! Learn more

10-Day Weather Forecast

Advertisements
Track Severe Weather on mobile